Gold Creek, Montana
Current Conditions -  °F | °C
As of 8:53 AM on Friday 24 Oct 2014 (Local Time) from KHLN Reporting Station
Broken Clouds Broken Clouds  
Wind Chill: 42°   Ceiling: 9000
Heat Index: 49°   Visibility: 10mi
Dew Point: 36°   Wind: 18mph
Humidity: 61%   Direction: 270°W
Pressure: 30.08"   Gusts: 24mph
Location:  46.57°N, 112.96°W
Report Text: KHLN 241453Z 27016G21KT 10SM FEW049 BKN090 09/02 A3008 RMK AO2 SLP194 T00940022 51018
Loading
Personal Weather Stations






























Interactive Weather Map
Tropical Storm Tracking
New forecast layout! Learn more

10-Day Weather Forecast

Advertisements
Track Severe Weather on mobile